Star Alliance - SPJL Airport Info

    SPJL (Inca Manco Capac International Airport)  Login to use Map Selector

  ALLIANCE AIRCRAFT AT THIS AIRPORT
Tail Number Aircraft ModelFlightsRunwayRangeCapacityPaxSale
N-TBM9-AYGSocata TBM 930 (MSFS) 02400ft1566nm1177Kg7No
  RUNWAY INFORMATION    |    Airport Elevation : 12552ft    |    LAT : -15.4671001434326  /  LON : -70.158203125
Runway Number 12 / 30 Runway Width 150' Runway Length 13779'
Lighted Runway Yes Runway StatusOpen Runway Surface Asphalt
  CLOSE ALTERNATE AIRPORTS
ICAODistanceAirport NameLongest RWRW SurfaceMAP
SPNP21NMVentilla Airport7546FTOther
SPRF74NMSan Rafael Airport8760FTGrass
SLCC75NMCopacabana Airport5249FTGrass
SPIY84NMYauri Airport8202FTAsphalt
SPQU97NMRodríguez Ballón International Airport9777FTAsphalt
  AIRPORT WEATHER
64°F | 18°C
Temperature
14%
Humidity
30.5" | 0mb
Pressure
6sm
Visibility
VFR
Flight Rules
FEW @ 4000ft
Initial Clouds
FAIR
Conditions
Wind Info
11/27/22 20:00Z
Updated

SPJL 272000Z 10012KT 9999 FEW040 18/M10 Q1033 RMK PP000
  AIRPORT FREQUENCIES
NameFrequency
GROUND118.100
TOWER118.100
MULTICOM126.900
  PILOT ENTERED AIRPORT INFORMATION SEE ALL PILOT ENTERED AIRPORT INFO

Powered by Virtual Airlines Manager